createdAt,value
2022-08-03T00:03:32.323Z,80.30
2022-08-03T00:06:36.803Z,81.70
2022-08-03T00:12:34.299Z,83.00
2022-08-03T00:15:15.136Z,84.30
2022-08-03T00:24:15.303Z,84.20
2022-08-03T00:29:59.339Z,84.40
2022-08-03T00:38:54.953Z,86.80
2022-08-03T00:41:00.537Z,87.60
2022-08-03T00:43:04.990Z,87.80
2022-08-03T00:45:16.323Z,88.20
2022-08-03T00:48:36.741Z,88.30
2022-08-03T00:57:14.569Z,89.00
2022-08-03T01:03:23.508Z,89.70
2022-08-03T01:05:41.739Z,90.00
2022-08-03T01:10:26.080Z,90.10
2022-08-03T01:33:23.562Z,90.90
2022-08-03T01:35:30.447Z,91.00
2022-08-03T01:46:00.575Z,91.40
2022-08-03T01:52:32.571Z,91.70
2022-08-03T02:00:52.067Z,92.20
2022-08-03T02:03:29.524Z,92.30
2022-08-03T02:05:48.098Z,92.40
2022-08-03T02:07:51.872Z,92.50
2022-08-03T02:10:36.083Z,92.70
2022-08-03T02:22:50.696Z,93.40
2022-08-03T02:25:52.233Z,93.50
2022-08-03T02:28:34.357Z,93.60
2022-08-03T02:49:42.617Z,94.60
2022-08-03T02:52:04.402Z,94.80
2022-08-03T03:20:03.817Z,97.80
2022-08-03T03:22:27.928Z,98.10
2022-08-03T03:28:53.594Z,98.60
2022-08-03T03:41:18.075Z,99.40
2022-08-03T03:43:57.201Z,99.60
2022-08-03T03:53:19.047Z,99.90
2022-08-03T03:56:18.112Z,99.90
2022-08-03T04:11:30.325Z,99.90
2022-08-03T04:14:06.703Z,99.90
2022-08-03T04:16:12.655Z,99.90
2022-08-03T04:28:35.093Z,99.90
2022-08-03T04:30:47.878Z,99.90
2022-08-03T04:32:52.010Z,99.90
2022-08-03T04:35:01.344Z,99.90
2022-08-03T04:37:07.223Z,99.90
2022-08-03T04:42:04.733Z,99.90
2022-08-03T04:44:39.448Z,99.90
2022-08-03T04:47:01.627Z,99.90
2022-08-03T04:49:18.658Z,99.90
2022-08-03T04:53:51.603Z,99.50
2022-08-03T04:56:45.683Z,99.20
2022-08-03T05:02:50.070Z,98.20
2022-08-03T05:05:50.156Z,97.80
2022-08-03T05:08:35.338Z,97.40
2022-08-03T05:11:07.944Z,97.00
2022-08-03T05:13:14.716Z,96.70
2022-08-03T05:15:48.092Z,96.30
2022-08-03T05:18:14.383Z,96.00
2022-08-03T05:20:43.546Z,95.50
2022-08-03T05:22:47.254Z,95.20
2022-08-03T05:24:57.660Z,95.00
2022-08-03T05:27:01.157Z,94.60
2022-08-03T05:29:13.574Z,94.40
2022-08-03T05:31:45.582Z,94.20
2022-08-03T05:36:13.259Z,93.20
2022-08-03T05:38:23.904Z,93.10
2022-08-03T05:41:22.442Z,93.10
2022-08-03T05:43:32.236Z,93.00
2022-08-03T05:45:38.862Z,92.40
2022-08-03T05:48:00.454Z,92.30
2022-08-03T05:50:19.533Z,91.60
2022-08-03T05:52:42.684Z,91.10
2022-08-03T05:55:04.429Z,90.50
2022-08-03T05:57:15.920Z,90.20
2022-08-03T06:00:02.865Z,90.00
2022-08-03T06:03:19.203Z,89.60
2022-08-03T06:05:28.532Z,88.20
2022-08-03T06:07:49.990Z,87.40
2022-08-03T06:10:35.775Z,85.20
2022-08-03T06:12:38.987Z,85.10
2022-08-03T06:14:55.654Z,84.40
2022-08-03T06:17:02.881Z,83.60
2022-08-03T06:20:07.225Z,82.80
2022-08-03T06:22:25.902Z,82.70
2022-08-03T06:24:56.483Z,82.20
2022-08-03T06:27:15.210Z,81.60
2022-08-03T06:29:23.049Z,81.60
2022-08-03T06:31:33.795Z,80.40
2022-08-03T06:34:31.297Z,80.60
2022-08-03T06:36:23.838Z,80.40
2022-08-03T06:38:27.301Z,79.50
2022-08-03T06:40:40.373Z,79.30
2022-08-03T06:42:46.735Z,79.20
2022-08-03T06:44:58.430Z,78.30
2022-08-03T06:49:23.574Z,76.30
2022-08-03T06:52:03.848Z,76.10
2022-08-03T06:54:13.670Z,75.10
2022-08-03T06:56:20.858Z,74.20
2022-08-03T06:58:42.916Z,73.60
2022-08-03T07:01:02.683Z,73.20
2022-08-03T07:05:26.878Z,72.50
2022-08-03T07:07:46.578Z,71.50
2022-08-03T07:10:02.449Z,71.90
2022-08-03T07:12:35.360Z,69.90
2022-08-03T07:14:43.430Z,69.30
2022-08-03T07:20:01.123Z,68.50
2022-08-03T07:22:04.891Z,68.50
2022-08-03T07:24:13.436Z,68.30
2022-08-03T07:27:07.923Z,67.50
2022-08-03T07:30:14.501Z,67.50
2022-08-03T07:32:25.085Z,67.20
2022-08-03T07:34:53.777Z,66.60
2022-08-03T07:37:17.719Z,66.10
2022-08-03T07:39:40.744Z,65.60
2022-08-03T07:44:53.374Z,64.30
2022-08-03T07:47:10.885Z,64.00
2022-08-03T07:49:32.388Z,63.60
2022-08-03T07:54:15.612Z,63.00
2022-08-03T07:56:57.184Z,62.60
2022-08-03T07:59:15.003Z,62.30
2022-08-03T08:04:31.806Z,61.40
2022-08-03T08:09:05.489Z,60.00
2022-08-03T08:11:08.977Z,59.90
2022-08-03T08:15:51.906Z,59.50
2022-08-03T08:18:08.611Z,58.80
2022-08-03T08:20:57.509Z,58.60
2022-08-03T08:23:41.764Z,57.80
2022-08-03T08:25:50.282Z,57.60
2022-08-03T08:28:31.598Z,57.20
2022-08-03T08:30:26.854Z,57.20
2022-08-03T08:32:37.756Z,56.90
2022-08-03T08:34:51.906Z,55.90
2022-08-03T08:37:32.137Z,55.80
2022-08-03T08:40:02.620Z,55.40
2022-08-03T08:42:18.038Z,55.30
2022-08-03T08:44:22.860Z,54.80
2022-08-03T08:46:36.144Z,54.60
2022-08-03T08:48:50.157Z,53.90
2022-08-03T08:51:07.535Z,53.40
2022-08-03T08:54:10.123Z,53.10
2022-08-03T08:56:44.035Z,52.60
2022-08-03T08:59:47.643Z,52.60
2022-08-03T09:04:50.632Z,51.30
2022-08-03T09:07:19.284Z,51.80
2022-08-03T09:10:10.469Z,51.90
2022-08-03T09:13:27.771Z,51.20
2022-08-03T09:14:39.401Z,50.90
2022-08-03T09:18:00.595Z,50.50
2022-08-03T09:20:11.085Z,50.50
2022-08-03T09:22:28.198Z,50.30
2022-08-03T09:24:41.052Z,50.60
2022-08-03T09:29:18.444Z,49.20
2022-08-03T09:31:46.540Z,49.50
2022-08-03T09:34:10.826Z,49.30
2022-08-03T09:36:36.873Z,48.90
2022-08-03T09:41:16.428Z,48.30
2022-08-03T09:43:29.372Z,48.00
2022-08-03T09:45:41.020Z,47.90
2022-08-03T09:50:58.560Z,47.00
2022-08-03T09:51:32.891Z,47.10
2022-08-03T09:53:42.651Z,46.80
2022-08-03T09:57:29.877Z,46.70
2022-08-03T10:00:04.786Z,47.80
2022-08-03T10:02:54.426Z,47.30
2022-08-03T10:08:19.340Z,46.30
2022-08-03T10:10:44.293Z,45.70
2022-08-03T10:12:49.360Z,45.70
2022-08-03T10:20:09.146Z,46.30
2022-08-03T10:22:16.511Z,45.80
2022-08-03T10:27:10.905Z,45.70
2022-08-03T10:29:19.705Z,45.60
2022-08-03T10:32:01.818Z,45.50
2022-08-03T10:37:11.975Z,45.10
2022-08-03T10:39:23.269Z,44.10
2022-08-03T10:41:57.031Z,44.00
2022-08-03T10:44:04.072Z,44.20
2022-08-03T10:46:10.317Z,44.30
2022-08-03T10:48:51.747Z,44.20
2022-08-03T10:51:02.802Z,43.90
2022-08-03T10:56:03.676Z,44.00
2022-08-03T10:58:12.315Z,43.20
2022-08-03T11:00:24.750Z,43.60
2022-08-03T11:08:34.994Z,43.10
2022-08-03T11:11:45.872Z,42.70
2022-08-03T11:14:09.840Z,42.70
2022-08-03T11:19:10.757Z,43.50
2022-08-03T11:24:07.003Z,42.60
2022-08-03T11:26:22.710Z,42.60
2022-08-03T11:28:37.541Z,42.30
2022-08-03T11:31:51.908Z,42.40
2022-08-03T11:36:53.176Z,42.40
2022-08-03T11:39:24.323Z,42.60
2022-08-03T11:42:02.827Z,42.10
2022-08-03T11:45:14.298Z,41.80
2022-08-03T11:46:52.779Z,42.00
2022-08-03T11:49:05.305Z,41.70
2022-08-03T11:54:09.349Z,41.40
2022-08-03T12:04:32.923Z,41.50
2022-08-03T12:06:55.035Z,41.40
2022-08-03T12:09:28.039Z,41.30
2022-08-03T12:11:59.867Z,41.00
2022-08-03T12:14:50.468Z,41.30
2022-08-03T12:17:12.128Z,41.20
2022-08-03T12:19:18.519Z,41.20
2022-08-03T12:21:30.125Z,41.40
2022-08-03T12:23:51.837Z,41.10
2022-08-03T12:26:03.516Z,41.10
2022-08-03T12:29:06.456Z,41.10
2022-08-03T12:31:14.151Z,41.50
2022-08-03T12:33:23.538Z,40.70
2022-08-03T12:35:29.693Z,40.60
2022-08-03T12:37:50.256Z,40.60
2022-08-03T12:40:10.605Z,41.00
2022-08-03T12:42:18.592Z,39.90
2022-08-03T12:44:33.431Z,40.10
2022-08-03T12:57:29.378Z,41.60
2022-08-03T13:03:39.458Z,40.50
2022-08-03T13:05:46.248Z,40.40
2022-08-03T13:08:24.889Z,39.80
2022-08-03T13:10:59.700Z,39.50
2022-08-03T13:13:03.742Z,39.70
2022-08-03T13:15:30.236Z,39.60
2022-08-03T13:20:22.878Z,39.30
2022-08-03T13:25:22.180Z,39.00
2022-08-03T13:28:03.348Z,38.80
2022-08-03T13:30:06.251Z,39.10
2022-08-03T13:32:37.571Z,38.90
2022-08-03T13:34:48.795Z,38.60
2022-08-03T13:37:09.671Z,38.70
2022-08-03T13:45:05.147Z,37.60
2022-08-03T13:47:18.838Z,37.70
2022-08-03T13:49:59.951Z,37.30
2022-08-03T13:52:18.988Z,37.60
2022-08-03T13:58:02.348Z,36.60
2022-08-03T14:02:15.979Z,36.80
2022-08-03T14:04:22.278Z,37.20
2022-08-03T14:12:12.686Z,36.40
2022-08-03T14:14:20.297Z,36.10
2022-08-03T14:19:01.917Z,35.50
2022-08-03T14:21:12.211Z,34.80
2022-08-03T14:23:56.995Z,34.70
2022-08-03T14:26:04.643Z,34.40
2022-08-03T14:28:08.161Z,34.30
2022-08-03T14:30:31.027Z,34.20
2022-08-03T14:35:33.045Z,34.50
2022-08-03T14:43:05.206Z,33.60
2022-08-03T14:45:20.017Z,33.90
2022-08-03T14:47:26.690Z,34.20
2022-08-03T14:51:56.962Z,34.20
2022-08-03T14:54:06.587Z,34.20
2022-08-03T14:56:27.961Z,34.60
2022-08-03T15:02:02.107Z,34.60
2022-08-03T15:03:50.385Z,34.20
2022-08-03T15:06:21.307Z,33.30
2022-08-03T15:08:35.702Z,33.30
2022-08-03T15:11:04.816Z,33.50
2022-08-03T15:13:07.452Z,33.30
2022-08-03T15:15:29.671Z,33.10
2022-08-03T15:18:23.671Z,32.80
2022-08-03T15:20:49.262Z,32.50
2022-08-03T15:26:34.009Z,32.70
2022-08-03T15:31:47.224Z,32.30
2022-08-03T15:34:15.471Z,32.30
2022-08-03T15:36:49.868Z,32.00
2022-08-03T15:39:09.065Z,31.60
2022-08-03T15:49:07.174Z,31.90
2022-08-03T15:54:35.516Z,31.50
2022-08-03T15:56:48.039Z,31.30
2022-08-03T15:59:13.387Z,31.50
2022-08-03T16:33:46.617Z,32.10
2022-08-03T16:52:17.957Z,30.90
2022-08-03T16:54:28.033Z,30.50
2022-08-03T17:44:13.773Z,31.60
2022-08-03T18:00:24.360Z,35.50
2022-08-03T18:34:16.919Z,42.10
2022-08-03T18:38:58.707Z,42.40
2022-08-03T18:58:51.397Z,44.40
2022-08-03T19:04:29.882Z,45.00
2022-08-03T19:06:38.022Z,46.00
2022-08-03T19:15:36.630Z,48.00
2022-08-03T19:18:20.543Z,48.40
2022-08-03T19:26:51.308Z,49.60
2022-08-03T19:31:59.790Z,49.90
2022-08-03T19:34:50.562Z,50.20
2022-08-03T19:44:36.980Z,51.40
2022-08-03T20:25:21.060Z,54.90
2022-08-03T20:28:06.843Z,55.40
2022-08-03T20:34:04.727Z,55.70
2022-08-03T20:36:08.907Z,55.80
2022-08-03T20:38:43.734Z,56.00
2022-08-03T20:46:00.600Z,56.00
2022-08-03T20:59:50.192Z,56.30
2022-08-03T21:47:47.453Z,58.40
2022-08-03T22:05:04.758Z,59.10
2022-08-03T22:22:55.331Z,59.70
2022-08-03T22:25:48.852Z,59.90
2022-08-03T22:28:36.644Z,60.20
2022-08-03T22:30:45.398Z,60.60
2022-08-03T22:58:35.735Z,61.10
2022-08-03T23:01:04.753Z,61.40
2022-08-03T23:10:50.551Z,61.90
2022-08-03T23:13:49.735Z,62.00
2022-08-03T23:16:50.534Z,62.00
2022-08-03T23:36:29.637Z,62.70
2022-08-03T23:45:05.808Z,63.30
2022-08-03T23:46:50.597Z,62.90
2022-08-03T23:51:00.240Z,63.60
